sensor_id;sensor_type;location;lat;lon;timestamp;pressure;altitude;pressure_sealevel;temperature;humidity
9261;BME280;4667;42.726;23.252;2023-03-26T00:00:21;94725.94;;;10.71;100.00
9261;BME280;4667;42.726;23.252;2023-03-26T00:02:47;94729.09;;;10.66;100.00
9261;BME280;4667;42.726;23.252;2023-03-26T00:05:14;94735.28;;;10.66;100.00
9261;BME280;4667;42.726;23.252;2023-03-26T00:07:41;94733.44;;;10.52;100.00
9261;BME280;4667;42.726;23.252;2023-03-26T00:10:09;94738.81;;;10.59;100.00
9261;BME280;4667;42.726;23.252;2023-03-26T00:12:35;94732.69;;;10.48;100.00
9261;BME280;4667;42.726;23.252;2023-03-26T00:15:04;94735.88;;;10.36;100.00
9261;BME280;4667;42.726;23.252;2023-03-26T00:17:34;94720.06;;;10.28;100.00
9261;BME280;4667;42.726;23.252;2023-03-26T00:20:01;94723.50;;;10.32;100.00
9261;BME280;4667;42.726;23.252;2023-03-26T00:22:29;94722.69;;;10.38;100.00
9261;BME280;4667;42.726;23.252;2023-03-26T00:24:56;94720.09;;;10.13;100.00
9261;BME280;4667;42.726;23.252;2023-03-26T00:27:23;94730.91;;;10.24;100.00
9261;BME280;4667;42.726;23.252;2023-03-26T00:29:52;94716.81;;;10.50;100.00
9261;BME280;4667;42.726;23.252;2023-03-26T00:32:22;94717.19;;;10.49;100.00
9261;BME280;4667;42.726;23.252;2023-03-26T00:34:52;94723.19;;;10.19;100.00
9261;BME280;4667;42.726;23.252;2023-03-26T00:37:20;94727.75;;;10.33;100.00
9261;BME280;4667;42.726;23.252;2023-03-26T00:39:51;94735.66;;;10.64;100.00
9261;BME280;4667;42.726;23.252;2023-03-26T00:42:17;94733.16;;;10.36;100.00
9261;BME280;4667;42.726;23.252;2023-03-26T00:44:44;94728.53;;;10.33;100.00
9261;BME280;4667;42.726;23.252;2023-03-26T00:47:11;94723.91;;;10.30;100.00
9261;BME280;4667;42.726;23.252;2023-03-26T00:49:42;94729.25;;;10.41;100.00
9261;BME280;4667;42.726;23.252;2023-03-26T00:52:15;94725.78;;;10.40;100.00
9261;BME280;4667;42.726;23.252;2023-03-26T00:54:43;94733.97;;;10.26;100.00
9261;BME280;4667;42.726;23.252;2023-03-26T00:57:10;94727.84;;;10.22;100.00
9261;BME280;4667;42.726;23.252;2023-03-26T00:59:37;94720.41;;;10.37;100.00
9261;BME280;4667;42.726;23.252;2023-03-26T01:02:05;94728.59;;;10.19;100.00
9261;BME280;4667;42.726;23.252;2023-03-26T01:04:36;94726.31;;;10.10;100.00
9261;BME280;4667;42.726;23.252;2023-03-26T01:07:09;94729.38;;;10.16;100.00
9261;BME280;4667;42.726;23.252;2023-03-26T01:09:39;94737.09;;;10.25;100.00
9261;BME280;4667;42.726;23.252;2023-03-26T01:12:12;94732.78;;;10.34;100.00
9261;BME280;4667;42.726;23.252;2023-03-26T01:14:42;94731.63;;;10.35;100.00
9261;BME280;4667;42.726;23.252;2023-03-26T01:17:09;94738.59;;;10.33;100.00
9261;BME280;4667;42.726;23.252;2023-03-26T01:19:44;94745.16;;;10.35;100.00
9261;BME280;4667;42.726;23.252;2023-03-26T01:22:16;94743.16;;;10.43;100.00
9261;BME280;4667;42.726;23.252;2023-03-26T01:24:45;94745.75;;;10.60;100.00
9261;BME280;4667;42.726;23.252;2023-03-26T01:27:28;94748.09;;;10.55;100.00
9261;BME280;4667;42.726;23.252;2023-03-26T01:30:01;94750.50;;;10.46;100.00
9261;BME280;4667;42.726;23.252;2023-03-26T01:32:42;94749.34;;;10.43;100.00
9261;BME280;4667;42.726;23.252;2023-03-26T01:35:20;94749.03;;;10.34;100.00
9261;BME280;4667;42.726;23.252;2023-03-26T01:38:00;94748.94;;;10.45;100.00
9261;BME280;4667;42.726;23.252;2023-03-26T01:40:41;94745.84;;;10.46;100.00
9261;BME280;4667;42.726;23.252;2023-03-26T01:43:17;94754.81;;;10.36;100.00
9261;BME280;4667;42.726;23.252;2023-03-26T01:45:48;94748.91;;;10.52;100.00
9261;BME280;4667;42.726;23.252;2023-03-26T01:48:15;94749.19;;;10.64;100.00
9261;BME280;4667;42.726;23.252;2023-03-26T01:50:42;94755.81;;;10.60;100.00
9261;BME280;4667;42.726;23.252;2023-03-26T01:53:10;94748.94;;;10.48;100.00
9261;BME280;4667;42.726;23.252;2023-03-26T01:55:47;94749.75;;;10.42;100.00
9261;BME280;4667;42.726;23.252;2023-03-26T01:58:26;94750.53;;;10.42;100.00
9261;BME280;4667;42.726;23.252;2023-03-26T02:01:02;94756.72;;;10.39;100.00
9261;BME280;4667;42.726;23.252;2023-03-26T02:03:37;94754.41;;;10.38;100.00
9261;BME280;4667;42.726;23.252;2023-03-26T02:06:13;94752.09;;;10.40;100.00
9261;BME280;4667;42.726;23.252;2023-03-26T02:08:45;94757.88;;;10.42;100.00
9261;BME280;4667;42.726;23.252;2023-03-26T02:11:16;94757.91;;;10.35;100.00
9261;BME280;4667;42.726;23.252;2023-03-26T02:13:45;94753.28;;;10.35;100.00
9261;BME280;4667;42.726;23.252;2023-03-26T02:16:13;94761.72;;;10.44;100.00
9261;BME280;4667;42.726;23.252;2023-03-26T02:18:41;94758.22;;;10.44;100.00
9261;BME280;4667;42.726;23.252;2023-03-26T02:21:10;94756.34;;;10.41;100.00
9261;BME280;4667;42.726;23.252;2023-03-26T02:23:39;94751.56;;;10.55;100.00
9261;BME280;4667;42.726;23.252;2023-03-26T02:26:07;94748.38;;;10.68;100.00
9261;BME280;4667;42.726;23.252;2023-03-26T02:28:35;94754.91;;;10.77;100.00
9261;BME280;4667;42.726;23.252;2023-03-26T02:31:03;94756.81;;;10.84;100.00
9261;BME280;4667;42.726;23.252;2023-03-26T02:33:30;94756.72;;;10.91;100.00
9261;BME280;4667;42.726;23.252;2023-03-26T02:35:57;94759.47;;;10.87;100.00
9261;BME280;4667;42.726;23.252;2023-03-26T02:38:26;94762.75;;;10.64;100.00
9261;BME280;4667;42.726;23.252;2023-03-26T02:40:53;94767.91;;;10.48;100.00
9261;BME280;4667;42.726;23.252;2023-03-26T02:43:20;94761.00;;;10.37;100.00
9261;BME280;4667;42.726;23.252;2023-03-26T02:45:48;94776.50;;;10.29;100.00
9261;BME280;4667;42.726;23.252;2023-03-26T02:48:15;94773.88;;;10.11;100.00
9261;BME280;4667;42.726;23.252;2023-03-26T02:50:42;94780.03;;;10.19;100.00
9261;BME280;4667;42.726;23.252;2023-03-26T02:53:10;94775.13;;;9.93;100.00
9261;BME280;4667;42.726;23.252;2023-03-26T02:55:38;94782.09;;;9.87;100.00
9261;BME280;4667;42.726;23.252;2023-03-26T02:58:04;94784.47;;;9.70;100.00
9261;BME280;4667;42.726;23.252;2023-03-26T03:00:31;94792.22;;;9.65;100.00
9261;BME280;4667;42.726;23.252;2023-03-26T03:03:00;94786.09;;;9.47;100.00
9261;BME280;4667;42.726;23.252;2023-03-26T03:05:29;94776.84;;;9.33;100.00
9261;BME280;4667;42.726;23.252;2023-03-26T03:07:56;94779.19;;;9.21;100.00
9261;BME280;4667;42.726;23.252;2023-03-26T03:10:24;94786.13;;;9.32;100.00
9261;BME280;4667;42.726;23.252;2023-03-26T03:12:52;94783.81;;;9.20;100.00
9261;BME280;4667;42.726;23.252;2023-03-26T03:15:19;94789.19;;;9.31;100.00
9261;BME280;4667;42.726;23.252;2023-03-26T03:17:46;94795.38;;;9.31;100.00
9261;BME280;4667;42.726;23.252;2023-03-26T03:20:14;94806.97;;;9.25;100.00
9261;BME280;4667;42.726;23.252;2023-03-26T03:22:42;94793.84;;;9.27;100.00
9261;BME280;4667;42.726;23.252;2023-03-26T03:25:09;94800.00;;;9.31;100.00
9261;BME280;4667;42.726;23.252;2023-03-26T03:27:39;94804.28;;;9.28;100.00
9261;BME280;4667;42.726;23.252;2023-03-26T03:30:08;94810.41;;;9.36;100.00
9261;BME280;4667;42.726;23.252;2023-03-26T03:32:36;94799.59;;;9.36;100.00
9261;BME280;4667;42.726;23.252;2023-03-26T03:35:04;94796.13;;;9.46;100.00
9261;BME280;4667;42.726;23.252;2023-03-26T03:37:33;94786.84;;;9.43;100.00
9261;BME280;4667;42.726;23.252;2023-03-26T03:39:59;94781.84;;;9.46;100.00
9261;BME280;4667;42.726;23.252;2023-03-26T03:42:26;94786.09;;;9.39;100.00
9261;BME280;4667;42.726;23.252;2023-03-26T03:44:53;94789.94;;;9.42;100.00
9261;BME280;4667;42.726;23.252;2023-03-26T03:47:20;94794.97;;;9.47;100.00
9261;BME280;4667;42.726;23.252;2023-03-26T03:49:47;94805.78;;;9.40;100.00
9261;BME280;4667;42.726;23.252;2023-03-26T03:52:14;94808.50;;;9.40;100.00
9261;BME280;4667;42.726;23.252;2023-03-26T03:54:43;94809.63;;;9.50;100.00
9261;BME280;4667;42.726;23.252;2023-03-26T03:57:10;94816.22;;;9.34;100.00
9261;BME280;4667;42.726;23.252;2023-03-26T03:59:38;94813.16;;;9.08;100.00
9261;BME280;4667;42.726;23.252;2023-03-26T04:02:05;94816.63;;;9.15;100.00
9261;BME280;4667;42.726;23.252;2023-03-26T04:04:32;94810.84;;;9.06;100.00
9261;BME280;4667;42.726;23.252;2023-03-26T04:06:58;94816.63;;;9.19;100.00
9261;BME280;4667;42.726;23.252;2023-03-26T04:09:25;94826.25;;;9.37;100.00
9261;BME280;4667;42.726;23.252;2023-03-26T04:11:53;94835.91;;;9.38;100.00
9261;BME280;4667;42.726;23.252;2023-03-26T04:14:20;94839.00;;;9.44;100.00
9261;BME280;4667;42.726;23.252;2023-03-26T04:16:47;94844.03;;;9.31;100.00
9261;BME280;4667;42.726;23.252;2023-03-26T04:19:14;94854.06;;;9.52;100.00
9261;BME280;4667;42.726;23.252;2023-03-26T04:21:42;94860.97;;;9.64;100.00
9261;BME280;4667;42.726;23.252;2023-03-26T04:24:09;94867.13;;;9.78;100.00
9261;BME280;4667;42.726;23.252;2023-03-26T04:26:36;94870.25;;;9.56;100.00
9261;BME280;4667;42.726;23.252;2023-03-26T04:29:05;94867.94;;;9.61;100.00
9261;BME280;4667;42.726;23.252;2023-03-26T04:31:36;94874.88;;;9.69;100.00
9261;BME280;4667;42.726;23.252;2023-03-26T04:34:06;94873.72;;;9.70;100.00
9261;BME280;4667;42.726;23.252;2023-03-26T04:36:38;94876.03;;;9.75;100.00
9261;BME280;4667;42.726;23.252;2023-03-26T04:39:09;94884.13;;;9.72;100.00
9261;BME280;4667;42.726;23.252;2023-03-26T04:41:37;94884.16;;;9.65;100.00
9261;BME280;4667;42.726;23.252;2023-03-26T04:44:06;94889.53;;;9.75;100.00
9261;BME280;4667;42.726;23.252;2023-03-26T04:46:33;94887.59;;;9.72;100.00
9261;BME280;4667;42.726;23.252;2023-03-26T04:49:00;94892.25;;;9.75;100.00
9261;BME280;4667;42.726;23.252;2023-03-26T04:51:35;94893.44;;;9.71;100.00
9261;BME280;4667;42.726;23.252;2023-03-26T04:54:04;94903.44;;;9.81;100.00
9261;BME280;4667;42.726;23.252;2023-03-26T04:56:38;94894.19;;;9.75;100.00
9261;BME280;4667;42.726;23.252;2023-03-26T04:59:10;94891.03;;;9.91;100.00
9261;BME280;4667;42.726;23.252;2023-03-26T05:01:39;94887.53;;;10.04;100.00
9261;BME280;4667;42.726;23.252;2023-03-26T05:04:06;94892.56;;;10.06;100.00
9261;BME280;4667;42.726;23.252;2023-03-26T05:06:33;94899.13;;;10.12;100.00
9261;BME280;4667;42.726;23.252;2023-03-26T05:09:42;94906.91;;;9.85;100.00
9261;BME280;4667;42.726;23.252;2023-03-26T05:12:09;94917.31;;;10.01;100.00
9261;BME280;4667;42.726;23.252;2023-03-26T05:14:37;94918.50;;;9.93;100.00
9261;BME280;4667;42.726;23.252;2023-03-26T05:17:35;94916.97;;;9.67;100.00
9261;BME280;4667;42.726;23.252;2023-03-26T05:20:29;94911.56;;;9.67;100.00
9261;BME280;4667;42.726;23.252;2023-03-26T05:23:05;94916.59;;;9.75;100.00
9261;BME280;4667;42.726;23.252;2023-03-26T05:25:38;94930.88;;;9.79;100.00
9261;BME280;4667;42.726;23.252;2023-03-26T05:28:40;94942.09;;;9.74;100.00
9261;BME280;4667;42.726;23.252;2023-03-26T05:31:53;94933.19;;;9.84;100.00
9261;BME280;4667;42.726;23.252;2023-03-26T05:34:41;94930.47;;;9.92;100.00
9261;BME280;4667;42.726;23.252;2023-03-26T05:37:46;94929.69;;;9.98;100.00
9261;BME280;4667;42.726;23.252;2023-03-26T05:40:41;94930.44;;;9.95;100.00
9261;BME280;4667;42.726;23.252;2023-03-26T05:43:08;94937.75;;;10.16;100.00
9261;BME280;4667;42.726;23.252;2023-03-26T05:45:36;94927.34;;;10.11;100.00
9261;BME280;4667;42.726;23.252;2023-03-26T05:48:09;94936.22;;;10.29;100.00
9261;BME280;4667;42.726;23.252;2023-03-26T05:50:37;94945.13;;;10.30;100.00
9261;BME280;4667;42.726;23.252;2023-03-26T05:53:12;94945.41;;;10.49;100.00
9261;BME280;4667;42.726;23.252;2023-03-26T05:56:00;94946.56;;;10.55;100.00
9261;BME280;4667;42.726;23.252;2023-03-26T05:58:39;94934.50;;;10.71;100.00
9261;BME280;4667;42.726;23.252;2023-03-26T06:01:40;94937.91;;;10.89;100.00
9261;BME280;4667;42.726;23.252;2023-03-26T06:07:29;94930.31;;;10.55;100.00
9261;BME280;4667;42.726;23.252;2023-03-26T06:09:56;94936.78;;;10.79;100.00
9261;BME280;4667;42.726;23.252;2023-03-26T06:12:22;94936.09;;;10.64;100.00
9261;BME280;4667;42.726;23.252;2023-03-26T06:14:49;94929.91;;;10.60;100.00
9261;BME280;4667;42.726;23.252;2023-03-26T06:17:18;94933.75;;;10.63;100.00
9261;BME280;4667;42.726;23.252;2023-03-26T06:20:08;94929.44;;;10.76;100.00
9261;BME280;4667;42.726;23.252;2023-03-26T06:22:54;94933.31;;;10.75;100.00
9261;BME280;4667;42.726;23.252;2023-03-26T06:25:25;94931.00;;;10.74;100.00
9261;BME280;4667;42.726;23.252;2023-03-26T06:27:54;94934.13;;;10.72;100.00
9261;BME280;4667;42.726;23.252;2023-03-26T06:30:25;94932.97;;;10.70;100.00
9261;BME280;4667;42.726;23.252;2023-03-26T06:33:03;94936.34;;;10.88;100.00
9261;BME280;4667;42.726;23.252;2023-03-26T06:35:34;94929.75;;;10.96;100.00
9261;BME280;4667;42.726;23.252;2023-03-26T06:38:03;94933.13;;;11.14;100.00
9261;BME280;4667;42.726;23.252;2023-03-26T06:40:32;94926.81;;;11.28;100.00
9261;BME280;4667;42.726;23.252;2023-03-26T06:42:59;94929.16;;;11.26;100.00
9261;BME280;4667;42.726;23.252;2023-03-26T06:45:26;94927.22;;;11.23;100.00
9261;BME280;4667;42.726;23.252;2023-03-26T06:47:53;94934.84;;;11.38;100.00
9261;BME280;4667;42.726;23.252;2023-03-26T06:50:20;94942.16;;;11.45;100.00
9261;BME280;4667;42.726;23.252;2023-03-26T06:52:53;94947.53;;;11.56;100.00
9261;BME280;4667;42.726;23.252;2023-03-26T06:55:25;94954.00;;;11.69;100.00
9261;BME280;4667;42.726;23.252;2023-03-26T06:57:54;94956.16;;;11.43;100.00
9261;BME280;4667;42.726;23.252;2023-03-26T07:00:22;94953.59;;;11.77;100.00
9261;BME280;4667;42.726;23.252;2023-03-26T07:02:50;94948.06;;;11.88;100.00
9261;BME280;4667;42.726;23.252;2023-03-26T07:05:17;94952.88;;;11.66;100.00
9261;BME280;4667;42.726;23.252;2023-03-26T07:07:47;94954.16;;;11.99;100.00
9261;BME280;4667;42.726;23.252;2023-03-26T07:10:16;94948.16;;;12.18;100.00
9261;BME280;4667;42.726;23.252;2023-03-26T07:12:43;94944.22;;;12.26;100.00
9261;BME280;4667;42.726;23.252;2023-03-26T07:15:10;94945.06;;;12.16;100.00
9261;BME280;4667;42.726;23.252;2023-03-26T07:17:37;94935.28;;;12.26;100.00
9261;BME280;4667;42.726;23.252;2023-03-26T07:20:05;94936.56;;;12.14;100.00
9261;BME280;4667;42.726;23.252;2023-03-26T07:22:33;94936.06;;;12.26;100.00
9261;BME280;4667;42.726;23.252;2023-03-26T07:25:01;94933.84;;;12.14;100.00
9261;BME280;4667;42.726;23.252;2023-03-26T07:27:36;94926.88;;;12.13;100.00
9261;BME280;4667;42.726;23.252;2023-03-26T07:30:16;94925.28;;;11.75;100.00
9261;BME280;4667;42.726;23.252;2023-03-26T07:32:49;94922.75;;;11.54;100.00
9261;BME280;4667;42.726;23.252;2023-03-26T07:35:22;94926.28;;;11.95;100.00
9261;BME280;4667;42.726;23.252;2023-03-26T07:38:03;94927.16;;;11.85;100.00
9261;BME280;4667;42.726;23.252;2023-03-26T07:41:05;94926.91;;;12.10;100.00
9261;BME280;4667;42.726;23.252;2023-03-26T07:46:53;94934.97;;;12.20;99.88
9261;BME280;4667;42.726;23.252;2023-03-26T07:49:25;94923.66;;;12.22;100.00
9261;BME280;4667;42.726;23.252;2023-03-26T07:52:07;94927.28;;;12.46;97.94
9261;BME280;4667;42.726;23.252;2023-03-26T07:54:34;94917.03;;;12.60;97.12
9261;BME280;4667;42.726;23.252;2023-03-26T07:57:04;94913.25;;;13.15;91.63
9261;BME280;4667;42.726;23.252;2023-03-26T07:59:37;94905.66;;;13.76;85.87
9261;BME280;4667;42.726;23.252;2023-03-26T08:05:16;94902.56;;;14.80;72.37
9261;BME280;4667;42.726;23.252;2023-03-26T08:08:07;94912.94;;;15.05;70.32
9261;BME280;4667;42.726;23.252;2023-03-26T08:10:54;94906.13;;;15.65;65.89
9261;BME280;4667;42.726;23.252;2023-03-26T08:13:29;94904.41;;;15.87;63.86
9261;BME280;4667;42.726;23.252;2023-03-26T08:16:25;94908.47;;;16.41;61.85
9261;BME280;4667;42.726;23.252;2023-03-26T08:19:09;94917.59;;;16.50;57.41
9261;BME280;4667;42.726;23.252;2023-03-26T08:21:47;94917.25;;;16.77;55.14
9261;BME280;4667;42.726;23.252;2023-03-26T08:24:21;94913.81;;;17.02;55.37
9261;BME280;4667;42.726;23.252;2023-03-26T08:26:56;94908.13;;;17.47;54.80
9261;BME280;4667;42.726;23.252;2023-03-26T08:29:32;94912.44;;;17.61;49.67
9261;BME280;4667;42.726;23.252;2023-03-26T08:32:13;94909.09;;;18.04;50.04
9261;BME280;4667;42.726;23.252;2023-03-26T08:34:43;94902.22;;;18.21;49.11
9261;BME280;4667;42.726;23.252;2023-03-26T08:37:16;94904.84;;;18.81;47.47
9261;BME280;4667;42.726;23.252;2023-03-26T08:39:43;94903.38;;;18.67;46.44
9261;BME280;4667;42.726;23.252;2023-03-26T08:42:32;94900.91;;;18.47;47.06
9261;BME280;4667;42.726;23.252;2023-03-26T08:48:51;94898.06;;;18.72;44.22
9261;BME280;4667;42.726;23.252;2023-03-26T08:51:50;94907.94;;;19.44;42.70
9261;BME280;4667;42.726;23.252;2023-03-26T08:54:51;94902.06;;;19.02;41.90
9261;BME280;4667;42.726;23.252;2023-03-26T09:03:51;94912.19;;;18.62;43.86
9261;BME280;4667;42.726;23.252;2023-03-26T09:07:00;94910.66;;;19.44;41.75
9261;BME280;4667;42.726;23.252;2023-03-26T09:13:12;94903.75;;;20.56;39.38
9261;BME280;4667;42.726;23.252;2023-03-26T09:19:20;94888.63;;;20.61;39.62
9261;BME280;4667;42.726;23.252;2023-03-26T09:22:16;94892.88;;;20.80;38.01
9261;BME280;4667;42.726;23.252;2023-03-26T09:28:00;94883.72;;;20.74;37.60
9261;BME280;4667;42.726;23.252;2023-03-26T09:30:47;94879.38;;;21.51;36.95
9261;BME280;4667;42.726;23.252;2023-03-26T09:39:16;94874.06;;;22.05;34.41
9261;BME280;4667;42.726;23.252;2023-03-26T09:42:01;94863.56;;;21.28;34.83
9261;BME280;4667;42.726;23.252;2023-03-26T09:50:47;94861.56;;;21.29;35.10
9261;BME280;4667;42.726;23.252;2023-03-26T09:53:34;94855.31;;;21.61;34.06
9261;BME280;4667;42.726;23.252;2023-03-26T09:56:15;94854.88;;;21.21;33.89
9261;BME280;4667;42.726;23.252;2023-03-26T09:59:27;94847.25;;;22.05;32.68
9261;BME280;4667;42.726;23.252;2023-03-26T10:02:14;94847.75;;;20.87;33.84
9261;BME280;4667;42.726;23.252;2023-03-26T10:05:02;94840.47;;;20.65;34.16
9261;BME280;4667;42.726;23.252;2023-03-26T10:10:31;94836.81;;;21.10;34.12
9261;BME280;4667;42.726;23.252;2023-03-26T10:13:07;94819.63;;;21.57;32.58
9261;BME280;4667;42.726;23.252;2023-03-26T10:15:54;94813.09;;;22.70;32.18
9261;BME280;4667;42.726;23.252;2023-03-26T10:18:35;94807.25;;;23.56;31.94
9261;BME280;4667;42.726;23.252;2023-03-26T10:21:11;94805.31;;;23.63;29.97
9261;BME280;4667;42.726;23.252;2023-03-26T10:23:49;94808.81;;;23.28;29.85
9261;BME280;4667;42.726;23.252;2023-03-26T10:32:21;94790.63;;;23.22;28.85
9261;BME280;4667;42.726;23.252;2023-03-26T10:35:07;94788.34;;;23.20;29.27
9261;BME280;4667;42.726;23.252;2023-03-26T10:37:53;94786.75;;;23.48;28.50
9261;BME280;4667;42.726;23.252;2023-03-26T10:40:29;94797.06;;;23.83;28.32
9261;BME280;4667;42.726;23.252;2023-03-26T10:43:23;94786.22;;;24.71;26.66
9261;BME280;4667;42.726;23.252;2023-03-26T10:46:05;94784.19;;;24.20;26.30
9261;BME280;4667;42.726;23.252;2023-03-26T10:51:51;94779.75;;;23.68;25.97
9261;BME280;4667;42.726;23.252;2023-03-26T10:54:28;94777.63;;;23.77;26.69
9261;BME280;4667;42.726;23.252;2023-03-26T10:56:59;94763.91;;;24.29;25.01
9261;BME280;4667;42.726;23.252;2023-03-26T10:59:28;94765.44;;;23.89;24.67
9261;BME280;4667;42.726;23.252;2023-03-26T11:02:05;94757.00;;;24.19;25.57
9261;BME280;4667;42.726;23.252;2023-03-26T11:04:47;94761.56;;;24.73;25.01
9261;BME280;4667;42.726;23.252;2023-03-26T11:07:19;94760.19;;;24.37;24.96
9261;BME280;4667;42.726;23.252;2023-03-26T11:09:51;94757.72;;;24.39;25.02
9261;BME280;4667;42.726;23.252;2023-03-26T11:12:25;94762.50;;;24.65;24.50
9261;BME280;4667;42.726;23.252;2023-03-26T11:14:57;94763.28;;;23.99;25.05
9261;BME280;4667;42.726;23.252;2023-03-26T11:17:35;94760.38;;;24.08;24.98
9261;BME280;4667;42.726;23.252;2023-03-26T11:20:06;94744.34;;;24.64;24.77
9261;BME280;4667;42.726;23.252;2023-03-26T11:22:43;94751.50;;;24.76;24.98
9261;BME280;4667;42.726;23.252;2023-03-26T11:25:31;94741.78;;;25.17;24.89
9261;BME280;4667;42.726;23.252;2023-03-26T11:28:20;94735.47;;;25.17;24.73
9261;BME280;4667;42.726;23.252;2023-03-26T11:30:56;94719.75;;;24.71;25.06
9261;BME280;4667;42.726;23.252;2023-03-26T11:33:28;94723.38;;;25.57;24.58
9261;BME280;4667;42.726;23.252;2023-03-26T11:36:00;94719.25;;;25.41;23.90
9261;BME280;4667;42.726;23.252;2023-03-26T11:38:31;94725.22;;;24.92;23.90
9261;BME280;4667;42.726;23.252;2023-03-26T11:41:02;94713.25;;;24.80;24.18
9261;BME280;4667;42.726;23.252;2023-03-26T11:43:35;94693.38;;;25.13;23.99
9261;BME280;4667;42.726;23.252;2023-03-26T11:46:03;94697.63;;;24.77;24.17
9261;BME280;4667;42.726;23.252;2023-03-26T11:48:37;94701.03;;;24.92;22.62
9261;BME280;4667;42.726;23.252;2023-03-26T11:51:08;94686.72;;;24.99;21.98
9261;BME280;4667;42.726;23.252;2023-03-26T11:53:37;94689.50;;;24.16;23.68
9261;BME280;4667;42.726;23.252;2023-03-26T11:56:10;94680.53;;;25.15;23.45
9261;BME280;4667;42.726;23.252;2023-03-26T11:58:46;94676.56;;;25.81;23.89
9261;BME280;4667;42.726;23.252;2023-03-26T12:01:16;94674.00;;;25.61;22.38
9261;BME280;4667;42.726;23.252;2023-03-26T12:04:04;94655.34;;;25.67;21.36
9261;BME280;4667;42.726;23.252;2023-03-26T12:06:32;94658.94;;;25.84;21.78
9261;BME280;4667;42.726;23.252;2023-03-26T12:08:59;94657.03;;;26.35;22.02
9261;BME280;4667;42.726;23.252;2023-03-26T12:11:29;94662.88;;;25.61;22.08
9261;BME280;4667;42.726;23.252;2023-03-26T12:14:01;94657.72;;;26.08;22.09
9261;BME280;4667;42.726;23.252;2023-03-26T12:16:29;94650.03;;;25.15;22.16
9261;BME280;4667;42.726;23.252;2023-03-26T12:19:18;94641.13;;;25.00;21.97
9261;BME280;4667;42.726;23.252;2023-03-26T12:21:50;94641.28;;;25.93;21.75
9261;BME280;4667;42.726;23.252;2023-03-26T12:24:32;94635.75;;;25.34;21.39
9261;BME280;4667;42.726;23.252;2023-03-26T12:27:05;94631.06;;;25.56;21.15
9261;BME280;4667;42.726;23.252;2023-03-26T12:29:49;94627.09;;;25.15;21.36
9261;BME280;4667;42.726;23.252;2023-03-26T12:32:17;94629.84;;;24.35;21.05
9261;BME280;4667;42.726;23.252;2023-03-26T12:34:45;94620.44;;;25.44;20.16
9261;BME280;4667;42.726;23.252;2023-03-26T12:37:30;94613.19;;;25.63;20.20
9261;BME280;4667;42.726;23.252;2023-03-26T12:40:06;94609.81;;;25.37;21.49
9261;BME280;4667;42.726;23.252;2023-03-26T12:42:39;94608.22;;;25.95;20.52
9261;BME280;4667;42.726;23.252;2023-03-26T12:45:11;94603.63;;;25.70;19.85
9261;BME280;4667;42.726;23.252;2023-03-26T12:47:41;94601.00;;;25.38;18.90
9261;BME280;4667;42.726;23.252;2023-03-26T12:50:13;94606.31;;;25.47;19.18
9261;BME280;4667;42.726;23.252;2023-03-26T12:52:50;94596.09;;;25.11;19.20
9261;BME280;4667;42.726;23.252;2023-03-26T12:55:35;94590.34;;;26.01;18.77
9261;BME280;4667;42.726;23.252;2023-03-26T12:58:16;94606.50;;;26.09;17.98
9261;BME280;4667;42.726;23.252;2023-03-26T13:00:52;94595.69;;;26.38;17.88
9261;BME280;4667;42.726;23.252;2023-03-26T13:03:44;94589.59;;;26.34;17.21
9261;BME280;4667;42.726;23.252;2023-03-26T13:06:30;94593.66;;;26.50;17.19
9261;BME280;4667;42.726;23.252;2023-03-26T13:09:32;94592.34;;;26.07;17.51
9261;BME280;4667;42.726;23.252;2023-03-26T13:12:21;94592.38;;;26.29;16.70
9261;BME280;4667;42.726;23.252;2023-03-26T13:15:18;94586.31;;;26.14;17.47
9261;BME280;4667;42.726;23.252;2023-03-26T13:17:56;94578.97;;;26.16;18.45
9261;BME280;4667;42.726;23.252;2023-03-26T13:20:33;94574.94;;;25.13;18.70
9261;BME280;4667;42.726;23.252;2023-03-26T13:23:16;94570.16;;;24.71;18.62
9261;BME280;4667;42.726;23.252;2023-03-26T13:25:55;94580.50;;;25.13;18.99
9261;BME280;4667;42.726;23.252;2023-03-26T13:28:31;94582.59;;;25.41;18.91
9261;BME280;4667;42.726;23.252;2023-03-26T13:31:04;94574.66;;;25.76;18.66
9261;BME280;4667;42.726;23.252;2023-03-26T13:33:39;94575.66;;;25.73;19.04
9261;BME280;4667;42.726;23.252;2023-03-26T13:36:15;94560.03;;;25.92;18.36
9261;BME280;4667;42.726;23.252;2023-03-26T13:38:55;94566.59;;;26.12;19.19
9261;BME280;4667;42.726;23.252;2023-03-26T13:41:34;94566.81;;;25.75;18.89
9261;BME280;4667;42.726;23.252;2023-03-26T13:44:10;94563.56;;;25.87;19.13
9261;BME280;4667;42.726;23.252;2023-03-26T13:46:45;94559.25;;;25.86;19.20
9261;BME280;4667;42.726;23.252;2023-03-26T13:49:15;94562.06;;;25.97;19.18
9261;BME280;4667;42.726;23.252;2023-03-26T13:51:44;94556.25;;;25.79;18.38
9261;BME280;4667;42.726;23.252;2023-03-26T13:54:19;94568.69;;;25.30;18.38
9261;BME280;4667;42.726;23.252;2023-03-26T13:56:53;94557.03;;;26.07;17.69
9261;BME280;4667;42.726;23.252;2023-03-26T13:59:25;94558.28;;;26.12;17.72
9261;BME280;4667;42.726;23.252;2023-03-26T14:01:58;94552.91;;;25.58;18.05
9261;BME280;4667;42.726;23.252;2023-03-26T14:04:30;94549.16;;;25.67;18.50
9261;BME280;4667;42.726;23.252;2023-03-26T14:07:04;94540.88;;;25.83;18.70
9261;BME280;4667;42.726;23.252;2023-03-26T14:09:38;94547.81;;;25.51;18.25
9261;BME280;4667;42.726;23.252;2023-03-26T14:12:26;94538.22;;;25.30;18.67
9261;BME280;4667;42.726;23.252;2023-03-26T14:14:57;94530.72;;;25.58;18.71
9261;BME280;4667;42.726;23.252;2023-03-26T14:17:31;94518.66;;;25.83;18.79
9261;BME280;4667;42.726;23.252;2023-03-26T14:20:42;94520.44;;;26.09;19.42
9261;BME280;4667;42.726;23.252;2023-03-26T14:23:29;94518.19;;;26.24;19.13
9261;BME280;4667;42.726;23.252;2023-03-26T14:26:18;94523.22;;;26.03;19.10
9261;BME280;4667;42.726;23.252;2023-03-26T14:31:54;94522.69;;;25.77;20.22
9261;BME280;4667;42.726;23.252;2023-03-26T14:34:35;94520.66;;;25.72;18.90
9261;BME280;4667;42.726;23.252;2023-03-26T14:37:31;94515.63;;;25.81;19.32
9261;BME280;4667;42.726;23.252;2023-03-26T14:40:28;94506.03;;;25.82;18.82
9261;BME280;4667;42.726;23.252;2023-03-26T14:43:12;94503.44;;;25.40;19.26